sensor_id;sensor_type;location;lat;lon;timestamp;P1;durP1;ratioP1;P2;durP2;ratioP2
73456;SDS011;61691;53.072;6.582;2023-11-21T00:02:21;32.20;;;7.03;;
73456;SDS011;61691;53.072;6.582;2023-11-21T00:04:48;27.70;;;6.45;;
73456;SDS011;61691;53.072;6.582;2023-11-21T00:07:15;24.52;;;6.68;;
73456;SDS011;61691;53.072;6.582;2023-11-21T00:09:42;27.75;;;7.47;;
73456;SDS011;61691;53.072;6.582;2023-11-21T00:12:09;30.08;;;7.70;;
73456;SDS011;61691;53.072;6.582;2023-11-21T00:14:37;33.08;;;8.73;;
73456;SDS011;61691;53.072;6.582;2023-11-21T00:17:04;28.17;;;7.50;;
73456;SDS011;61691;53.072;6.582;2023-11-21T00:19:32;25.90;;;8.13;;
73456;SDS011;61691;53.072;6.582;2023-11-21T00:22:02;33.38;;;8.70;;
73456;SDS011;61691;53.072;6.582;2023-11-21T00:24:29;27.92;;;8.00;;
73456;SDS011;61691;53.072;6.582;2023-11-21T00:26:55;32.38;;;8.00;;
73456;SDS011;61691;53.072;6.582;2023-11-21T00:29:22;29.15;;;8.10;;
73456;SDS011;61691;53.072;6.582;2023-11-21T00:31:49;27.98;;;7.85;;
73456;SDS011;61691;53.072;6.582;2023-11-21T00:34:15;29.00;;;8.13;;
73456;SDS011;61691;53.072;6.582;2023-11-21T00:36:42;26.63;;;7.55;;
73456;SDS011;61691;53.072;6.582;2023-11-21T00:39:09;26.92;;;7.15;;
73456;SDS011;61691;53.072;6.582;2023-11-21T00:41:38;25.67;;;6.90;;
73456;SDS011;61691;53.072;6.582;2023-11-21T00:44:04;29.05;;;7.43;;
73456;SDS011;61691;53.072;6.582;2023-11-21T00:46:32;27.63;;;7.38;;
73456;SDS011;61691;53.072;6.582;2023-11-21T00:48:59;27.67;;;6.80;;
73456;SDS011;61691;53.072;6.582;2023-11-21T00:51:26;27.95;;;7.55;;
73456;SDS011;61691;53.072;6.582;2023-11-21T00:53:53;30.23;;;7.25;;
73456;SDS011;61691;53.072;6.582;2023-11-21T00:56:20;27.85;;;7.13;;
73456;SDS011;61691;53.072;6.582;2023-11-21T00:58:46;30.20;;;7.43;;
73456;SDS011;61691;53.072;6.582;2023-11-21T01:01:16;30.83;;;7.10;;
73456;SDS011;61691;53.072;6.582;2023-11-21T01:07:57;32.92;;;7.72;;
73456;SDS011;61691;53.072;6.582;2023-11-21T01:10:24;28.33;;;7.95;;
73456;SDS011;61691;53.072;6.582;2023-11-21T01:12:51;25.73;;;7.38;;
73456;SDS011;61691;53.072;6.582;2023-11-21T01:15:18;31.50;;;8.90;;
73456;SDS011;61691;53.072;6.582;2023-11-21T01:17:44;34.22;;;9.07;;
73456;SDS011;61691;53.072;6.582;2023-11-21T01:20:11;35.45;;;9.25;;
73456;SDS011;61691;53.072;6.582;2023-11-21T01:22:40;34.67;;;8.30;;
73456;SDS011;61691;53.072;6.582;2023-11-21T01:25:07;30.98;;;8.73;;
73456;SDS011;61691;53.072;6.582;2023-11-21T01:27:34;34.05;;;8.68;;
73456;SDS011;61691;53.072;6.582;2023-11-21T01:30:01;37.17;;;9.70;;
73456;SDS011;61691;53.072;6.582;2023-11-21T01:32:29;33.42;;;9.27;;
73456;SDS011;61691;53.072;6.582;2023-11-21T01:34:55;34.17;;;9.05;;
73456;SDS011;61691;53.072;6.582;2023-11-21T01:37:22;37.70;;;9.98;;
73456;SDS011;61691;53.072;6.582;2023-11-21T01:39:49;36.70;;;10.48;;
73456;SDS011;61691;53.072;6.582;2023-11-21T01:42:15;34.22;;;9.70;;
73456;SDS011;61691;53.072;6.582;2023-11-21T01:44:42;35.67;;;10.50;;
73456;SDS011;61691;53.072;6.582;2023-11-21T01:47:09;36.03;;;10.38;;
73456;SDS011;61691;53.072;6.582;2023-11-21T01:49:36;33.28;;;9.88;;
73456;SDS011;61691;53.072;6.582;2023-11-21T01:52:04;39.05;;;11.40;;
73456;SDS011;61691;53.072;6.582;2023-11-21T01:54:32;36.33;;;10.00;;
73456;SDS011;61691;53.072;6.582;2023-11-21T01:56:59;38.58;;;11.93;;
73456;SDS011;61691;53.072;6.582;2023-11-21T01:59:36;36.42;;;10.25;;
73456;SDS011;61691;53.072;6.582;2023-11-21T02:02:04;39.72;;;10.77;;
73456;SDS011;61691;53.072;6.582;2023-11-21T02:04:34;38.05;;;10.68;;
73456;SDS011;61691;53.072;6.582;2023-11-21T02:07:03;33.85;;;10.88;;
73456;SDS011;61691;53.072;6.582;2023-11-21T02:09:31;38.58;;;11.85;;
73456;SDS011;61691;53.072;6.582;2023-11-21T02:12:00;41.53;;;11.73;;
73456;SDS011;61691;53.072;6.582;2023-11-21T02:14:27;41.35;;;11.50;;
73456;SDS011;61691;53.072;6.582;2023-11-21T02:16:54;35.83;;;10.30;;
73456;SDS011;61691;53.072;6.582;2023-11-21T02:19:23;34.78;;;10.05;;
73456;SDS011;61691;53.072;6.582;2023-11-21T02:21:52;39.05;;;11.90;;
73456;SDS011;61691;53.072;6.582;2023-11-21T02:24:20;36.17;;;11.88;;
73456;SDS011;61691;53.072;6.582;2023-11-21T02:26:47;38.80;;;11.38;;
73456;SDS011;61691;53.072;6.582;2023-11-21T02:29:18;34.92;;;12.05;;
73456;SDS011;61691;53.072;6.582;2023-11-21T02:31:51;40.05;;;11.15;;
73456;SDS011;61691;53.072;6.582;2023-11-21T02:34:18;41.88;;;11.13;;
73456;SDS011;61691;53.072;6.582;2023-11-21T02:36:45;36.78;;;11.27;;
73456;SDS011;61691;53.072;6.582;2023-11-21T02:39:12;37.17;;;12.02;;
73456;SDS011;61691;53.072;6.582;2023-11-21T02:41:39;41.83;;;11.20;;
73456;SDS011;61691;53.072;6.582;2023-11-21T02:44:06;40.03;;;12.38;;
73456;SDS011;61691;53.072;6.582;2023-11-21T02:46:33;41.10;;;11.90;;
73456;SDS011;61691;53.072;6.582;2023-11-21T02:49:03;42.58;;;12.45;;
73456;SDS011;61691;53.072;6.582;2023-11-21T02:51:32;43.00;;;13.27;;
73456;SDS011;61691;53.072;6.582;2023-11-21T02:54:00;39.00;;;12.15;;
73456;SDS011;61691;53.072;6.582;2023-11-21T02:56:29;42.00;;;12.15;;
73456;SDS011;61691;53.072;6.582;2023-11-21T02:58:56;43.25;;;12.52;;
73456;SDS011;61691;53.072;6.582;2023-11-21T03:01:23;47.45;;;13.60;;
73456;SDS011;61691;53.072;6.582;2023-11-21T03:03:53;44.20;;;13.18;;
73456;SDS011;61691;53.072;6.582;2023-11-21T03:06:21;47.63;;;13.32;;
73456;SDS011;61691;53.072;6.582;2023-11-21T03:08:48;42.33;;;13.30;;
73456;SDS011;61691;53.072;6.582;2023-11-21T03:11:15;43.10;;;15.48;;
73456;SDS011;61691;53.072;6.582;2023-11-21T03:13:42;44.00;;;13.88;;
73456;SDS011;61691;53.072;6.582;2023-11-21T03:16:09;49.30;;;14.40;;
73456;SDS011;61691;53.072;6.582;2023-11-21T03:18:39;53.00;;;14.45;;
73456;SDS011;61691;53.072;6.582;2023-11-21T03:21:06;54.22;;;16.25;;
73456;SDS011;61691;53.072;6.582;2023-11-21T03:23:36;46.65;;;15.07;;
73456;SDS011;61691;53.072;6.582;2023-11-21T03:26:03;49.85;;;15.38;;
73456;SDS011;61691;53.072;6.582;2023-11-21T03:28:30;53.85;;;16.17;;
73456;SDS011;61691;53.072;6.582;2023-11-21T03:30:57;77.40;;;18.73;;
73456;SDS011;61691;53.072;6.582;2023-11-21T03:33:23;54.90;;;15.05;;
73456;SDS011;61691;53.072;6.582;2023-11-21T03:35:50;69.70;;;17.52;;
73456;SDS011;61691;53.072;6.582;2023-11-21T03:38:19;56.25;;;15.82;;
73456;SDS011;61691;53.072;6.582;2023-11-21T03:40:46;57.63;;;16.00;;
73456;SDS011;61691;53.072;6.582;2023-11-21T03:43:14;59.03;;;17.58;;
73456;SDS011;61691;53.072;6.582;2023-11-21T03:45:41;70.43;;;17.48;;
73456;SDS011;61691;53.072;6.582;2023-11-21T03:48:08;58.70;;;17.90;;
73456;SDS011;61691;53.072;6.582;2023-11-21T03:50:35;51.90;;;16.58;;
73456;SDS011;61691;53.072;6.582;2023-11-21T03:53:02;61.20;;;16.80;;
73456;SDS011;61691;53.072;6.582;2023-11-21T03:55:30;65.57;;;17.95;;
73456;SDS011;61691;53.072;6.582;2023-11-21T03:57:58;67.32;;;18.40;;
73456;SDS011;61691;53.072;6.582;2023-11-21T04:00:25;72.20;;;17.42;;
73456;SDS011;61691;53.072;6.582;2023-11-21T04:02:55;56.50;;;16.57;;
73456;SDS011;61691;53.072;6.582;2023-11-21T04:05:22;61.22;;;17.75;;
73456;SDS011;61691;53.072;6.582;2023-11-21T04:07:50;58.67;;;16.55;;
73456;SDS011;61691;53.072;6.582;2023-11-21T04:10:19;66.57;;;18.53;;
73456;SDS011;61691;53.072;6.582;2023-11-21T04:12:46;56.20;;;17.17;;
73456;SDS011;61691;53.072;6.582;2023-11-21T04:15:13;49.67;;;16.35;;
73456;SDS011;61691;53.072;6.582;2023-11-21T04:17:41;48.10;;;16.83;;
73456;SDS011;61691;53.072;6.582;2023-11-21T04:20:08;66.22;;;18.77;;
73456;SDS011;61691;53.072;6.582;2023-11-21T04:22:36;59.30;;;16.75;;
73456;SDS011;61691;53.072;6.582;2023-11-21T04:25:10;52.88;;;16.48;;
73456;SDS011;61691;53.072;6.582;2023-11-21T04:27:39;58.28;;;17.63;;
73456;SDS011;61691;53.072;6.582;2023-11-21T04:30:07;56.97;;;17.60;;
73456;SDS011;61691;53.072;6.582;2023-11-21T04:32:35;51.47;;;16.83;;
73456;SDS011;61691;53.072;6.582;2023-11-21T04:35:02;59.92;;;17.52;;
73456;SDS011;61691;53.072;6.582;2023-11-21T04:37:30;73.97;;;18.58;;
73456;SDS011;61691;53.072;6.582;2023-11-21T04:39:56;59.60;;;16.80;;
73456;SDS011;61691;53.072;6.582;2023-11-21T04:42:23;56.25;;;16.38;;
73456;SDS011;61691;53.072;6.582;2023-11-21T04:44:50;56.30;;;16.15;;
73456;SDS011;61691;53.072;6.582;2023-11-21T04:47:18;54.83;;;16.63;;
73456;SDS011;61691;53.072;6.582;2023-11-21T04:49:46;57.60;;;17.83;;
73456;SDS011;61691;53.072;6.582;2023-11-21T04:52:16;68.27;;;18.63;;
73456;SDS011;61691;53.072;6.582;2023-11-21T04:54:42;69.25;;;18.35;;
73456;SDS011;61691;53.072;6.582;2023-11-21T04:57:09;64.47;;;18.02;;
73456;SDS011;61691;53.072;6.582;2023-11-21T04:59:36;84.82;;;19.95;;
73456;SDS011;61691;53.072;6.582;2023-11-21T05:02:02;61.08;;;18.08;;
73456;SDS011;61691;53.072;6.582;2023-11-21T05:04:29;56.22;;;17.73;;
73456;SDS011;61691;53.072;6.582;2023-11-21T05:06:56;73.65;;;19.33;;
73456;SDS011;61691;53.072;6.582;2023-11-21T05:09:23;51.30;;;16.20;;
73456;SDS011;61691;53.072;6.582;2023-11-21T05:11:49;59.88;;;18.02;;
73456;SDS011;61691;53.072;6.582;2023-11-21T05:14:16;74.40;;;19.98;;
73456;SDS011;61691;53.072;6.582;2023-11-21T05:16:45;58.45;;;16.83;;
73456;SDS011;61691;53.072;6.582;2023-11-21T05:19:12;73.03;;;18.15;;
73456;SDS011;61691;53.072;6.582;2023-11-21T05:21:39;62.83;;;17.75;;
73456;SDS011;61691;53.072;6.582;2023-11-21T05:24:06;74.03;;;18.85;;
73456;SDS011;61691;53.072;6.582;2023-11-21T05:26:33;81.82;;;19.17;;
73456;SDS011;61691;53.072;6.582;2023-11-21T05:29:00;71.65;;;19.63;;
73456;SDS011;61691;53.072;6.582;2023-11-21T05:31:26;71.45;;;19.48;;
73456;SDS011;61691;53.072;6.582;2023-11-21T05:33:53;61.25;;;19.10;;
73456;SDS011;61691;53.072;6.582;2023-11-21T05:36:20;63.00;;;18.48;;
73456;SDS011;61691;53.072;6.582;2023-11-21T05:38:47;54.33;;;17.85;;
73456;SDS011;61691;53.072;6.582;2023-11-21T05:41:13;52.67;;;17.33;;
73456;SDS011;61691;53.072;6.582;2023-11-21T05:43:41;53.47;;;16.98;;
73456;SDS011;61691;53.072;6.582;2023-11-21T05:46:08;62.85;;;18.20;;
73456;SDS011;61691;53.072;6.582;2023-11-21T05:48:35;268.08;;;27.67;;
73456;SDS011;61691;53.072;6.582;2023-11-21T05:51:04;88.93;;;20.35;;
73456;SDS011;61691;53.072;6.582;2023-11-21T05:53:32;51.42;;;15.95;;
73456;SDS011;61691;53.072;6.582;2023-11-21T05:55:59;47.17;;;15.80;;
73456;SDS011;61691;53.072;6.582;2023-11-21T05:58:25;36.03;;;12.10;;
73456;SDS011;61691;53.072;6.582;2023-11-21T06:00:52;38.90;;;12.45;;
73456;SDS011;61691;53.072;6.582;2023-11-21T06:03:19;56.67;;;16.92;;
73456;SDS011;61691;53.072;6.582;2023-11-21T06:05:46;36.42;;;12.48;;
73456;SDS011;61691;53.072;6.582;2023-11-21T06:08:12;33.92;;;11.45;;
73456;SDS011;61691;53.072;6.582;2023-11-21T06:10:39;29.75;;;9.95;;
73456;SDS011;61691;53.072;6.582;2023-11-21T06:13:06;28.75;;;9.65;;
73456;SDS011;61691;53.072;6.582;2023-11-21T06:15:33;26.08;;;8.75;;
73456;SDS011;61691;53.072;6.582;2023-11-21T06:18:00;26.25;;;8.55;;
73456;SDS011;61691;53.072;6.582;2023-11-21T06:20:27;26.38;;;8.35;;
73456;SDS011;61691;53.072;6.582;2023-11-21T06:22:54;26.10;;;8.82;;
73456;SDS011;61691;53.072;6.582;2023-11-21T06:25:21;26.45;;;9.00;;
73456;SDS011;61691;53.072;6.582;2023-11-21T06:27:48;24.35;;;8.68;;
73456;SDS011;61691;53.072;6.582;2023-11-21T06:30:15;26.83;;;8.63;;
73456;SDS011;61691;53.072;6.582;2023-11-21T06:32:42;26.77;;;9.73;;
73456;SDS011;61691;53.072;6.582;2023-11-21T06:35:13;25.15;;;9.57;;
73456;SDS011;61691;53.072;6.582;2023-11-21T06:37:42;25.88;;;9.00;;
73456;SDS011;61691;53.072;6.582;2023-11-21T06:40:15;25.20;;;9.32;;
73456;SDS011;61691;53.072;6.582;2023-11-21T06:42:45;25.05;;;9.45;;
73456;SDS011;61691;53.072;6.582;2023-11-21T06:45:13;29.25;;;11.10;;
73456;SDS011;61691;53.072;6.582;2023-11-21T06:47:41;32.33;;;10.48;;
73456;SDS011;61691;53.072;6.582;2023-11-21T06:50:09;69.82;;;13.15;;
73456;SDS011;61691;53.072;6.582;2023-11-21T06:52:35;49.15;;;13.05;;
73456;SDS011;61691;53.072;6.582;2023-11-21T06:55:02;29.85;;;10.52;;
73456;SDS011;61691;53.072;6.582;2023-11-21T06:57:30;30.70;;;10.68;;
73456;SDS011;61691;53.072;6.582;2023-11-21T06:59:57;33.58;;;11.10;;
73456;SDS011;61691;53.072;6.582;2023-11-21T07:02:24;32.58;;;10.60;;
73456;SDS011;61691;53.072;6.582;2023-11-21T07:04:51;33.20;;;11.80;;
73456;SDS011;61691;53.072;6.582;2023-11-21T07:07:18;30.10;;;12.15;;
73456;SDS011;61691;53.072;6.582;2023-11-21T07:09:45;30.67;;;11.40;;
73456;SDS011;61691;53.072;6.582;2023-11-21T07:12:12;29.67;;;12.00;;
73456;SDS011;61691;53.072;6.582;2023-11-21T07:14:40;32.08;;;11.27;;
73456;SDS011;61691;53.072;6.582;2023-11-21T07:17:09;28.52;;;11.32;;
73456;SDS011;61691;53.072;6.582;2023-11-21T07:19:38;29.67;;;10.68;;
73456;SDS011;61691;53.072;6.582;2023-11-21T07:22:05;28.80;;;11.35;;
73456;SDS011;61691;53.072;6.582;2023-11-21T07:24:32;27.23;;;9.65;;
73456;SDS011;61691;53.072;6.582;2023-11-21T07:26:59;27.63;;;11.25;;
73456;SDS011;61691;53.072;6.582;2023-11-21T07:29:25;28.17;;;11.25;;
73456;SDS011;61691;53.072;6.582;2023-11-21T07:31:53;29.83;;;11.70;;
73456;SDS011;61691;53.072;6.582;2023-11-21T07:34:20;30.48;;;12.20;;
73456;SDS011;61691;53.072;6.582;2023-11-21T07:36:47;29.52;;;11.48;;
73456;SDS011;61691;53.072;6.582;2023-11-21T07:39:14;28.80;;;11.82;;
73456;SDS011;61691;53.072;6.582;2023-11-21T07:41:43;31.02;;;12.07;;
73456;SDS011;61691;53.072;6.582;2023-11-21T07:44:16;28.95;;;12.30;;
73456;SDS011;61691;53.072;6.582;2023-11-21T07:46:47;29.52;;;11.95;;
73456;SDS011;61691;53.072;6.582;2023-11-21T07:49:16;27.50;;;11.00;;
73456;SDS011;61691;53.072;6.582;2023-11-21T07:51:47;27.17;;;10.50;;
73456;SDS011;61691;53.072;6.582;2023-11-21T07:54:14;25.40;;;10.48;;
73456;SDS011;61691;53.072;6.582;2023-11-21T07:56:40;26.13;;;10.63;;
73456;SDS011;61691;53.072;6.582;2023-11-21T07:59:07;27.80;;;11.20;;
73456;SDS011;61691;53.072;6.582;2023-11-21T08:01:34;27.88;;;11.73;;
73456;SDS011;61691;53.072;6.582;2023-11-21T08:04:01;27.52;;;12.45;;
73456;SDS011;61691;53.072;6.582;2023-11-21T08:06:30;29.70;;;11.15;;
73456;SDS011;61691;53.072;6.582;2023-11-21T08:08:57;28.10;;;11.43;;
73456;SDS011;61691;53.072;6.582;2023-11-21T08:11:25;29.67;;;12.77;;
73456;SDS011;61691;53.072;6.582;2023-11-21T08:13:52;30.98;;;14.65;;
73456;SDS011;61691;53.072;6.582;2023-11-21T08:16:21;31.70;;;15.32;;
73456;SDS011;61691;53.072;6.582;2023-11-21T08:18:48;35.10;;;15.45;;
73456;SDS011;61691;53.072;6.582;2023-11-21T08:21:14;35.13;;;16.02;;
73456;SDS011;61691;53.072;6.582;2023-11-21T08:23:41;37.00;;;16.38;;
73456;SDS011;61691;53.072;6.582;2023-11-21T08:26:08;38.42;;;16.30;;
73456;SDS011;61691;53.072;6.582;2023-11-21T08:28:35;37.40;;;16.65;;
73456;SDS011;61691;53.072;6.582;2023-11-21T08:31:02;36.13;;;16.17;;
73456;SDS011;61691;53.072;6.582;2023-11-21T08:33:29;33.15;;;15.88;;
73456;SDS011;61691;53.072;6.582;2023-11-21T08:35:56;36.08;;;17.80;;
73456;SDS011;61691;53.072;6.582;2023-11-21T08:38:23;36.53;;;16.92;;
73456;SDS011;61691;53.072;6.582;2023-11-21T08:40:50;33.65;;;16.70;;
73456;SDS011;61691;53.072;6.582;2023-11-21T08:43:16;36.17;;;17.25;;
73456;SDS011;61691;53.072;6.582;2023-11-21T08:45:46;33.93;;;18.43;;
73456;SDS011;61691;53.072;6.582;2023-11-21T08:48:13;34.28;;;15.75;;
73456;SDS011;61691;53.072;6.582;2023-11-21T08:50:40;33.25;;;16.15;;
73456;SDS011;61691;53.072;6.582;2023-11-21T08:53:07;33.30;;;17.02;;
73456;SDS011;61691;53.072;6.582;2023-11-21T08:55:33;29.65;;;16.08;;
73456;SDS011;61691;53.072;6.582;2023-11-21T08:58:04;30.80;;;15.35;;
73456;SDS011;61691;53.072;6.582;2023-11-21T09:00:32;28.13;;;14.75;;
73456;SDS011;61691;53.072;6.582;2023-11-21T09:03:00;27.90;;;16.73;;
73456;SDS011;61691;53.072;6.582;2023-11-21T09:05:29;27.02;;;14.40;;
73456;SDS011;61691;53.072;6.582;2023-11-21T09:07:56;25.50;;;14.38;;
73456;SDS011;61691;53.072;6.582;2023-11-21T09:10:23;27.88;;;13.35;;
73456;SDS011;61691;53.072;6.582;2023-11-21T09:12:51;26.10;;;13.95;;
73456;SDS011;61691;53.072;6.582;2023-11-21T09:15:19;25.85;;;14.10;;
73456;SDS011;61691;53.072;6.582;2023-11-21T09:17:47;25.08;;;13.57;;
73456;SDS011;61691;53.072;6.582;2023-11-21T09:20:14;26.17;;;12.50;;
73456;SDS011;61691;53.072;6.582;2023-11-21T09:22:41;24.73;;;14.00;;
73456;SDS011;61691;53.072;6.582;2023-11-21T09:25:08;25.95;;;14.07;;
73456;SDS011;61691;53.072;6.582;2023-11-21T09:27:35;25.25;;;13.48;;
73456;SDS011;61691;53.072;6.582;2023-11-21T09:30:02;26.17;;;12.77;;
73456;SDS011;61691;53.072;6.582;2023-11-21T09:32:31;25.45;;;13.80;;
73456;SDS011;61691;53.072;6.582;2023-11-21T09:34:58;25.77;;;13.18;;
73456;SDS011;61691;53.072;6.582;2023-11-21T09:37:25;24.45;;;12.48;;
73456;SDS011;61691;53.072;6.582;2023-11-21T09:39:53;23.90;;;12.57;;
73456;SDS011;61691;53.072;6.582;2023-11-21T09:42:32;24.15;;;11.63;;
73456;SDS011;61691;53.072;6.582;2023-11-21T09:47:55;23.45;;;11.68;;
73456;SDS011;61691;53.072;6.582;2023-11-21T09:50:23;24.60;;;12.02;;
73456;SDS011;61691;53.072;6.582;2023-11-21T09:53:11;23.75;;;11.93;;
73456;SDS011;61691;53.072;6.582;2023-11-21T09:55:43;22.45;;;11.10;;
73456;SDS011;61691;53.072;6.582;2023-11-21T09:58:11;23.05;;;10.85;;
73456;SDS011;61691;53.072;6.582;2023-11-21T10:00:46;22.63;;;11.20;;
73456;SDS011;61691;53.072;6.582;2023-11-21T10:03:14;23.42;;;10.93;;
73456;SDS011;61691;53.072;6.582;2023-11-21T10:05:42;21.42;;;10.35;;
73456;SDS011;61691;53.072;6.582;2023-11-21T10:08:12;22.88;;;11.85;;
73456;SDS011;61691;53.072;6.582;2023-11-21T10:10:43;19.58;;;8.40;;
73456;SDS011;61691;53.072;6.582;2023-11-21T10:13:12;27.35;;;9.23;;
73456;SDS011;61691;53.072;6.582;2023-11-21T10:15:44;22.17;;;12.57;;
73456;SDS011;61691;53.072;6.582;2023-11-21T10:18:15;19.65;;;8.73;;
73456;SDS011;61691;53.072;6.582;2023-11-21T10:20:42;19.88;;;8.57;;
73456;SDS011;61691;53.072;6.582;2023-11-21T10:23:13;19.33;;;8.23;;
73456;SDS011;61691;53.072;6.582;2023-11-21T10:25:42;21.00;;;8.23;;
73456;SDS011;61691;53.072;6.582;2023-11-21T10:28:09;19.98;;;9.40;;
73456;SDS011;61691;53.072;6.582;2023-11-21T10:30:37;19.98;;;8.07;;
73456;SDS011;61691;53.072;6.582;2023-11-21T10:33:05;17.13;;;7.22;;
73456;SDS011;61691;53.072;6.582;2023-11-21T10:38:08;18.63;;;7.18;;
73456;SDS011;61691;53.072;6.582;2023-11-21T10:40:40;17.58;;;6.97;;
73456;SDS011;61691;53.072;6.582;2023-11-21T10:43:09;17.77;;;7.13;;
73456;SDS011;61691;53.072;6.582;2023-11-21T10:45:39;18.55;;;7.13;;
73456;SDS011;61691;53.072;6.582;2023-11-21T10:48:07;19.90;;;7.38;;
73456;SDS011;61691;53.072;6.582;2023-11-21T10:50:35;18.13;;;7.10;;
73456;SDS011;61691;53.072;6.582;2023-11-21T10:53:02;17.33;;;6.18;;
73456;SDS011;61691;53.072;6.582;2023-11-21T10:55:32;17.90;;;6.70;;
73456;SDS011;61691;53.072;6.582;2023-11-21T10:58:03;18.65;;;6.80;;
73456;SDS011;61691;53.072;6.582;2023-11-21T11:00:32;18.10;;;7.10;;
73456;SDS011;61691;53.072;6.582;2023-11-21T11:02:59;17.73;;;6.68;;
73456;SDS011;61691;53.072;6.582;2023-11-21T11:05:28;17.40;;;6.35;;
73456;SDS011;61691;53.072;6.582;2023-11-21T11:07:59;18.55;;;7.03;;
73456;SDS011;61691;53.072;6.582;2023-11-21T11:10:30;18.20;;;6.82;;
73456;SDS011;61691;53.072;6.582;2023-11-21T11:12:58;17.75;;;6.53;;
73456;SDS011;61691;53.072;6.582;2023-11-21T11:15:26;17.75;;;6.70;;
73456;SDS011;61691;53.072;6.582;2023-11-21T11:17:54;17.15;;;5.93;;
73456;SDS011;61691;53.072;6.582;2023-11-21T11:20:32;19.30;;;6.82;;
73456;SDS011;61691;53.072;6.582;2023-11-21T11:23:26;18.52;;;6.90;;
73456;SDS011;61691;53.072;6.582;2023-11-21T11:26:34;18.00;;;6.00;;
73456;SDS011;61691;53.072;6.582;2023-11-21T11:29:14;17.70;;;6.07;;
73456;SDS011;61691;53.072;6.582;2023-11-21T11:32:11;17.42;;;6.72;;
73456;SDS011;61691;53.072;6.582;2023-11-21T11:34:48;17.95;;;6.25;;
73456;SDS011;61691;53.072;6.582;2023-11-21T11:37:24;16.92;;;6.32;;
73456;SDS011;61691;53.072;6.582;2023-11-21T11:39:51;17.20;;;6.25;;
73456;SDS011;61691;53.072;6.582;2023-11-21T11:42:18;20.63;;;6.82;;
73456;SDS011;61691;53.072;6.582;2023-11-21T11:44:47;18.77;;;6.80;;
73456;SDS011;61691;53.072;6.582;2023-11-21T11:50:05;19.05;;;6.40;;
73456;SDS011;61691;53.072;6.582;2023-11-21T11:52:45;17.07;;;6.07;;
73456;SDS011;61691;53.072;6.582;2023-11-21T11:55:13;18.83;;;5.68;;
73456;SDS011;61691;53.072;6.582;2023-11-21T11:57:48;16.63;;;5.68;;
73456;SDS011;61691;53.072;6.582;2023-11-21T12:00:22;15.93;;;5.45;;
73456;SDS011;61691;53.072;6.582;2023-11-21T12:03:12;16.95;;;5.70;;
73456;SDS011;61691;53.072;6.582;2023-11-21T12:05:40;16.48;;;5.47;;
73456;SDS011;61691;53.072;6.582;2023-11-21T12:08:08;16.77;;;5.57;;
73456;SDS011;61691;53.072;6.582;2023-11-21T12:10:37;17.48;;;6.00;;
73456;SDS011;61691;53.072;6.582;2023-11-21T12:13:07;19.08;;;5.63;;
73456;SDS011;61691;53.072;6.582;2023-11-21T12:15:36;18.23;;;6.78;;
73456;SDS011;61691;53.072;6.582;2023-11-21T12:18:04;19.42;;;7.28;;
73456;SDS011;61691;53.072;6.582;2023-11-21T12:20:32;18.13;;;6.35;;
73456;SDS011;61691;53.072;6.582;2023-11-21T12:23:05;17.13;;;6.20;;
73456;SDS011;61691;53.072;6.582;2023-11-21T12:25:32;18.17;;;6.78;;
73456;SDS011;61691;53.072;6.582;2023-11-21T12:27:59;18.52;;;6.80;;
73456;SDS011;61691;53.072;6.582;2023-11-21T12:30:28;19.00;;;6.38;;
73456;SDS011;61691;53.072;6.582;2023-11-21T12:32:59;17.10;;;5.97;;
73456;SDS011;61691;53.072;6.582;2023-11-21T12:35:31;15.85;;;5.18;;
73456;SDS011;61691;53.072;6.582;2023-11-21T12:38:02;17.45;;;6.47;;
73456;SDS011;61691;53.072;6.582;2023-11-21T12:40:31;18.90;;;5.47;;
73456;SDS011;61691;53.072;6.582;2023-11-21T12:42:59;16.75;;;5.63;;
73456;SDS011;61691;53.072;6.582;2023-11-21T12:45:28;16.77;;;5.47;;
73456;SDS011;61691;53.072;6.582;2023-11-21T12:47:59;18.73;;;5.57;;
73456;SDS011;61691;53.072;6.582;2023-11-21T12:50:28;16.70;;;5.40;;
73456;SDS011;61691;53.072;6.582;2023-11-21T12:52:59;19.25;;;5.57;;
73456;SDS011;61691;53.072;6.582;2023-11-21T12:55:39;15.77;;;4.75;;
73456;SDS011;61691;53.072;6.582;2023-11-21T12:58:07;16.48;;;5.32;;
73456;SDS011;61691;53.072;6.582;2023-11-21T13:00:38;16.52;;;5.35;;
73456;SDS011;61691;53.072;6.582;2023-11-21T13:03:09;15.98;;;5.45;;
73456;SDS011;61691;53.072;6.582;2023-11-21T13:08:14;14.93;;;4.75;;
73456;SDS011;61691;53.072;6.582;2023-11-21T13:10:46;16.42;;;5.20;;
73456;SDS011;61691;53.072;6.582;2023-11-21T13:13:17;17.80;;;5.30;;
73456;SDS011;61691;53.072;6.582;2023-11-21T13:18:35;16.35;;;5.15;;
73456;SDS011;61691;53.072;6.582;2023-11-21T13:21:03;16.17;;;5.22;;
73456;SDS011;61691;53.072;6.582;2023-11-21T13:23:36;15.50;;;5.35;;
73456;SDS011;61691;53.072;6.582;2023-11-21T13:26:04;16.60;;;5.50;;
73456;SDS011;61691;53.072;6.582;2023-11-21T13:28:33;16.23;;;5.43;;
73456;SDS011;61691;53.072;6.582;2023-11-21T13:31:02;16.45;;;5.45;;
73456;SDS011;61691;53.072;6.582;2023-11-21T13:33:37;15.85;;;5.03;;
73456;SDS011;61691;53.072;6.582;2023-11-21T13:36:05;17.52;;;5.50;;
73456;SDS011;61691;53.072;6.582;2023-11-21T13:38:35;17.25;;;5.03;;
73456;SDS011;61691;53.072;6.582;2023-11-21T13:41:04;16.75;;;5.63;;
73456;SDS011;61691;53.072;6.582;2023-11-21T13:43:34;16.90;;;4.72;;
73456;SDS011;61691;53.072;6.582;2023-11-21T13:46:01;16.30;;;5.18;;
73456;SDS011;61691;53.072;6.582;2023-11-21T13:48:34;17.73;;;5.82;;
73456;SDS011;61691;53.072;6.582;2023-11-21T13:51:11;16.23;;;5.30;;
73456;SDS011;61691;53.072;6.582;2023-11-21T13:53:44;17.05;;;4.65;;
73456;SDS011;61691;53.072;6.582;2023-11-21T13:56:17;15.50;;;4.40;;
73456;SDS011;61691;53.072;6.582;2023-11-21T13:58:48;17.98;;;5.00;;
73456;SDS011;61691;53.072;6.582;2023-11-21T14:01:19;14.77;;;4.45;;
73456;SDS011;61691;53.072;6.582;2023-11-21T14:04:00;15.65;;;4.70;;
73456;SDS011;61691;53.072;6.582;2023-11-21T14:06:39;16.83;;;4.88;;
73456;SDS011;61691;53.072;6.582;2023-11-21T14:09:16;15.60;;;5.00;;
73456;SDS011;61691;53.072;6.582;2023-11-21T14:11:52;15.52;;;4.85;;
73456;SDS011;61691;53.072;6.582;2023-11-21T14:14:23;17.05;;;4.65;;
73456;SDS011;61691;53.072;6.582;2023-11-21T14:16:54;17.95;;;5.78;;
73456;SDS011;61691;53.072;6.582;2023-11-21T14:19:22;17.02;;;5.43;;
73456;SDS011;61691;53.072;6.582;2023-11-21T14:21:53;17.00;;;5.20;;
73456;SDS011;61691;53.072;6.582;2023-11-21T14:24:21;18.45;;;5.65;;
73456;SDS011;61691;53.072;6.582;2023-11-21T14:26:50;16.90;;;5.20;;
73456;SDS011;61691;53.072;6.582;2023-11-21T14:29:17;17.00;;;5.70;;
73456;SDS011;61691;53.072;6.582;2023-11-21T14:31:50;16.23;;;5.30;;
73456;SDS011;61691;53.072;6.582;2023-11-21T14:34:20;17.97;;;5.70;;
73456;SDS011;61691;53.072;6.582;2023-11-21T14:36:52;16.30;;;5.45;;
73456;SDS011;61691;53.072;6.582;2023-11-21T14:39:18;16.17;;;5.30;;
73456;SDS011;61691;53.072;6.582;2023-11-21T14:41:54;17.38;;;5.75;;
73456;SDS011;61691;53.072;6.582;2023-11-21T14:44:26;18.17;;;5.82;;
73456;SDS011;61691;53.072;6.582;2023-11-21T14:46:59;17.58;;;5.30;;
73456;SDS011;61691;53.072;6.582;2023-11-21T14:49:27;17.25;;;5.25;;
73456;SDS011;61691;53.072;6.582;2023-11-21T14:52:02;16.17;;;5.38;;
73456;SDS011;61691;53.072;6.582;2023-11-21T14:54:30;16.40;;;4.93;;
73456;SDS011;61691;53.072;6.582;2023-11-21T14:57:10;17.40;;;5.03;;